sensor_id;sensor_type;location;lat;lon;timestamp;P1;durP1;ratioP1;P2;durP2;ratioP2
27163;SDS011;14685;50.618;7.024;2022-07-17T00:01:57;2.50;;;1.80;;
27163;SDS011;14685;50.618;7.024;2022-07-17T00:04:24;7.03;;;2.00;;
27163;SDS011;14685;50.618;7.024;2022-07-17T00:06:51;3.58;;;1.98;;
27163;SDS011;14685;50.618;7.024;2022-07-17T00:09:18;4.57;;;2.15;;
27163;SDS011;14685;50.618;7.024;2022-07-17T00:11:45;4.38;;;1.90;;
27163;SDS011;14685;50.618;7.024;2022-07-17T00:14:12;4.88;;;2.20;;
27163;SDS011;14685;50.618;7.024;2022-07-17T00:16:39;5.38;;;2.13;;
27163;SDS011;14685;50.618;7.024;2022-07-17T00:19:06;6.25;;;2.17;;
27163;SDS011;14685;50.618;7.024;2022-07-17T00:21:33;3.85;;;1.85;;
27163;SDS011;14685;50.618;7.024;2022-07-17T00:24:00;3.55;;;1.70;;
27163;SDS011;14685;50.618;7.024;2022-07-17T00:26:27;6.55;;;1.90;;
27163;SDS011;14685;50.618;7.024;2022-07-17T00:28:54;7.30;;;2.33;;
27163;SDS011;14685;50.618;7.024;2022-07-17T00:31:21;3.05;;;2.00;;
27163;SDS011;14685;50.618;7.024;2022-07-17T00:33:48;3.45;;;1.83;;
27163;SDS011;14685;50.618;7.024;2022-07-17T00:36:15;6.07;;;2.20;;
27163;SDS011;14685;50.618;7.024;2022-07-17T00:38:41;6.85;;;2.42;;
27163;SDS011;14685;50.618;7.024;2022-07-17T00:41:08;6.35;;;2.28;;
27163;SDS011;14685;50.618;7.024;2022-07-17T00:43:35;7.32;;;2.33;;
27163;SDS011;14685;50.618;7.024;2022-07-17T00:46:02;5.35;;;2.17;;
27163;SDS011;14685;50.618;7.024;2022-07-17T00:48:30;3.05;;;1.83;;
27163;SDS011;14685;50.618;7.024;2022-07-17T00:50:58;5.22;;;2.20;;
27163;SDS011;14685;50.618;7.024;2022-07-17T00:53:25;4.53;;;1.92;;
27163;SDS011;14685;50.618;7.024;2022-07-17T00:55:57;6.38;;;2.00;;
27163;SDS011;14685;50.618;7.024;2022-07-17T00:58:27;3.10;;;1.70;;
27163;SDS011;14685;50.618;7.024;2022-07-17T01:00:55;3.70;;;2.00;;
27163;SDS011;14685;50.618;7.024;2022-07-17T01:03:23;4.28;;;2.17;;
27163;SDS011;14685;50.618;7.024;2022-07-17T01:05:51;4.85;;;2.00;;
27163;SDS011;14685;50.618;7.024;2022-07-17T01:08:18;3.30;;;1.90;;
27163;SDS011;14685;50.618;7.024;2022-07-17T01:10:46;4.35;;;2.38;;
27163;SDS011;14685;50.618;7.024;2022-07-17T01:13:13;3.53;;;2.00;;
27163;SDS011;14685;50.618;7.024;2022-07-17T01:15:41;4.55;;;2.10;;
27163;SDS011;14685;50.618;7.024;2022-07-17T01:18:11;2.90;;;1.80;;
27163;SDS011;14685;50.618;7.024;2022-07-17T01:20:44;3.50;;;1.80;;
27163;SDS011;14685;50.618;7.024;2022-07-17T01:23:13;4.57;;;1.98;;
27163;SDS011;14685;50.618;7.024;2022-07-17T01:25:41;4.47;;;1.88;;
27163;SDS011;14685;50.618;7.024;2022-07-17T01:28:08;4.50;;;1.98;;
27163;SDS011;14685;50.618;7.024;2022-07-17T01:30:35;4.40;;;1.80;;
27163;SDS011;14685;50.618;7.024;2022-07-17T01:33:02;4.68;;;2.17;;
27163;SDS011;14685;50.618;7.024;2022-07-17T01:35:29;2.90;;;1.77;;
27163;SDS011;14685;50.618;7.024;2022-07-17T01:37:57;4.72;;;2.17;;
27163;SDS011;14685;50.618;7.024;2022-07-17T01:40:24;2.83;;;1.77;;
27163;SDS011;14685;50.618;7.024;2022-07-17T01:42:51;5.78;;;2.72;;
27163;SDS011;14685;50.618;7.024;2022-07-17T01:45:18;5.65;;;2.15;;
27163;SDS011;14685;50.618;7.024;2022-07-17T01:47:45;3.28;;;1.80;;
27163;SDS011;14685;50.618;7.024;2022-07-17T01:50:13;6.18;;;2.03;;
27163;SDS011;14685;50.618;7.024;2022-07-17T01:52:41;5.28;;;1.70;;
27163;SDS011;14685;50.618;7.024;2022-07-17T01:55:13;3.42;;;1.80;;
27163;SDS011;14685;50.618;7.024;2022-07-17T01:57:42;4.45;;;1.50;;
27163;SDS011;14685;50.618;7.024;2022-07-17T02:00:11;6.80;;;2.13;;
27163;SDS011;14685;50.618;7.024;2022-07-17T02:02:41;4.28;;;2.03;;
27163;SDS011;14685;50.618;7.024;2022-07-17T02:05:08;5.20;;;2.00;;
27163;SDS011;14685;50.618;7.024;2022-07-17T02:07:34;6.22;;;1.63;;
27163;SDS011;14685;50.618;7.024;2022-07-17T02:10:06;3.33;;;1.70;;
27163;SDS011;14685;50.618;7.024;2022-07-17T02:12:34;3.83;;;1.92;;
27163;SDS011;14685;50.618;7.024;2022-07-17T02:15:02;2.25;;;1.55;;
27163;SDS011;14685;50.618;7.024;2022-07-17T02:17:30;3.00;;;1.90;;
27163;SDS011;14685;50.618;7.024;2022-07-17T02:19:57;5.20;;;2.03;;
27163;SDS011;14685;50.618;7.024;2022-07-17T02:22:24;5.07;;;2.10;;
27163;SDS011;14685;50.618;7.024;2022-07-17T02:24:51;3.83;;;2.00;;
27163;SDS011;14685;50.618;7.024;2022-07-17T02:27:18;5.70;;;2.00;;
27163;SDS011;14685;50.618;7.024;2022-07-17T02:29:45;3.15;;;1.75;;
27163;SDS011;14685;50.618;7.024;2022-07-17T02:32:12;1.83;;;1.50;;
27163;SDS011;14685;50.618;7.024;2022-07-17T02:34:39;3.45;;;2.03;;
27163;SDS011;14685;50.618;7.024;2022-07-17T02:37:06;4.25;;;1.75;;
27163;SDS011;14685;50.618;7.024;2022-07-17T02:39:33;4.00;;;1.80;;
27163;SDS011;14685;50.618;7.024;2022-07-17T02:42:00;5.78;;;1.88;;
27163;SDS011;14685;50.618;7.024;2022-07-17T02:44:27;9.48;;;1.80;;
27163;SDS011;14685;50.618;7.024;2022-07-17T02:46:53;2.25;;;1.60;;
27163;SDS011;14685;50.618;7.024;2022-07-17T02:49:21;3.10;;;1.92;;
27163;SDS011;14685;50.618;7.024;2022-07-17T02:51:48;4.03;;;1.95;;
27163;SDS011;14685;50.618;7.024;2022-07-17T02:54:15;4.82;;;1.90;;
27163;SDS011;14685;50.618;7.024;2022-07-17T02:56:42;3.38;;;1.70;;
27163;SDS011;14685;50.618;7.024;2022-07-17T02:59:09;5.20;;;1.77;;
27163;SDS011;14685;50.618;7.024;2022-07-17T03:01:36;2.85;;;2.08;;
27163;SDS011;14685;50.618;7.024;2022-07-17T03:04:03;4.75;;;1.85;;
27163;SDS011;14685;50.618;7.024;2022-07-17T03:06:30;4.28;;;1.85;;
27163;SDS011;14685;50.618;7.024;2022-07-17T03:08:57;3.38;;;1.88;;
27163;SDS011;14685;50.618;7.024;2022-07-17T03:11:23;3.28;;;1.88;;
27163;SDS011;14685;50.618;7.024;2022-07-17T03:13:51;3.00;;;1.77;;
27163;SDS011;14685;50.618;7.024;2022-07-17T03:16:18;6.95;;;2.00;;
27163;SDS011;14685;50.618;7.024;2022-07-17T03:18:45;3.53;;;2.25;;
27163;SDS011;14685;50.618;7.024;2022-07-17T03:21:12;5.00;;;1.65;;
27163;SDS011;14685;50.618;7.024;2022-07-17T03:23:38;3.42;;;1.60;;
27163;SDS011;14685;50.618;7.024;2022-07-17T03:26:05;4.30;;;2.00;;
27163;SDS011;14685;50.618;7.024;2022-07-17T03:28:32;3.03;;;1.88;;
27163;SDS011;14685;50.618;7.024;2022-07-17T03:30:59;5.20;;;1.80;;
27163;SDS011;14685;50.618;7.024;2022-07-17T03:33:26;2.10;;;1.55;;
27163;SDS011;14685;50.618;7.024;2022-07-17T03:35:53;4.28;;;1.75;;
27163;SDS011;14685;50.618;7.024;2022-07-17T03:38:20;3.35;;;1.80;;
27163;SDS011;14685;50.618;7.024;2022-07-17T03:40:47;6.40;;;1.77;;
27163;SDS011;14685;50.618;7.024;2022-07-17T03:43:14;4.60;;;1.50;;
27163;SDS011;14685;50.618;7.024;2022-07-17T03:45:41;5.78;;;2.03;;
27163;SDS011;14685;50.618;7.024;2022-07-17T03:48:08;2.38;;;1.70;;
27163;SDS011;14685;50.618;7.024;2022-07-17T03:50:35;2.22;;;1.80;;
27163;SDS011;14685;50.618;7.024;2022-07-17T03:53:03;4.65;;;2.05;;
27163;SDS011;14685;50.618;7.024;2022-07-17T03:55:30;2.65;;;1.83;;
27163;SDS011;14685;50.618;7.024;2022-07-17T03:57:56;4.65;;;2.08;;
27163;SDS011;14685;50.618;7.024;2022-07-17T04:00:23;3.45;;;1.65;;
27163;SDS011;14685;50.618;7.024;2022-07-17T04:02:50;3.25;;;1.85;;
27163;SDS011;14685;50.618;7.024;2022-07-17T04:05:17;3.72;;;1.70;;
27163;SDS011;14685;50.618;7.024;2022-07-17T04:07:44;5.07;;;2.00;;
27163;SDS011;14685;50.618;7.024;2022-07-17T04:10:12;4.03;;;1.80;;
27163;SDS011;14685;50.618;7.024;2022-07-17T04:12:40;5.25;;;1.83;;
27163;SDS011;14685;50.618;7.024;2022-07-17T04:15:08;4.10;;;2.05;;
27163;SDS011;14685;50.618;7.024;2022-07-17T04:17:36;4.40;;;2.15;;
27163;SDS011;14685;50.618;7.024;2022-07-17T04:20:03;4.88;;;2.08;;
27163;SDS011;14685;50.618;7.024;2022-07-17T04:22:30;3.85;;;1.77;;
27163;SDS011;14685;50.618;7.024;2022-07-17T04:24:57;4.57;;;2.10;;
27163;SDS011;14685;50.618;7.024;2022-07-17T04:27:23;4.90;;;2.08;;
27163;SDS011;14685;50.618;7.024;2022-07-17T04:29:50;3.55;;;1.92;;
27163;SDS011;14685;50.618;7.024;2022-07-17T04:32:17;3.33;;;2.03;;
27163;SDS011;14685;50.618;7.024;2022-07-17T04:34:44;5.88;;;2.05;;
27163;SDS011;14685;50.618;7.024;2022-07-17T04:37:11;4.80;;;2.05;;
27163;SDS011;14685;50.618;7.024;2022-07-17T04:39:38;3.70;;;1.85;;
27163;SDS011;14685;50.618;7.024;2022-07-17T04:42:05;3.78;;;1.88;;
27163;SDS011;14685;50.618;7.024;2022-07-17T04:44:31;4.43;;;1.95;;
27163;SDS011;14685;50.618;7.024;2022-07-17T04:46:59;2.90;;;1.73;;
27163;SDS011;14685;50.618;7.024;2022-07-17T04:49:27;9.35;;;2.50;;
27163;SDS011;14685;50.618;7.024;2022-07-17T04:51:53;3.45;;;1.90;;
27163;SDS011;14685;50.618;7.024;2022-07-17T04:54:21;5.72;;;1.98;;
27163;SDS011;14685;50.618;7.024;2022-07-17T04:56:50;5.05;;;1.88;;
27163;SDS011;14685;50.618;7.024;2022-07-17T04:59:17;4.60;;;2.00;;
27163;SDS011;14685;50.618;7.024;2022-07-17T05:01:43;3.95;;;1.77;;
27163;SDS011;14685;50.618;7.024;2022-07-17T05:04:11;4.97;;;1.98;;
27163;SDS011;14685;50.618;7.024;2022-07-17T05:06:37;3.75;;;1.80;;
27163;SDS011;14685;50.618;7.024;2022-07-17T05:09:04;5.53;;;2.15;;
27163;SDS011;14685;50.618;7.024;2022-07-17T05:11:31;3.30;;;2.00;;
27163;SDS011;14685;50.618;7.024;2022-07-17T05:13:58;5.55;;;2.00;;
27163;SDS011;14685;50.618;7.024;2022-07-17T05:16:25;3.15;;;1.95;;
27163;SDS011;14685;50.618;7.024;2022-07-17T05:18:52;3.33;;;1.75;;
27163;SDS011;14685;50.618;7.024;2022-07-17T05:21:19;6.03;;;1.92;;
27163;SDS011;14685;50.618;7.024;2022-07-17T05:23:46;2.92;;;1.80;;
27163;SDS011;14685;50.618;7.024;2022-07-17T05:26:13;3.58;;;1.92;;
27163;SDS011;14685;50.618;7.024;2022-07-17T05:28:40;5.82;;;2.10;;
27163;SDS011;14685;50.618;7.024;2022-07-17T05:31:06;4.32;;;1.50;;
27163;SDS011;14685;50.618;7.024;2022-07-17T05:33:33;3.13;;;2.00;;
27163;SDS011;14685;50.618;7.024;2022-07-17T05:36:00;3.63;;;1.75;;
27163;SDS011;14685;50.618;7.024;2022-07-17T05:38:28;7.10;;;1.98;;
27163;SDS011;14685;50.618;7.024;2022-07-17T05:40:54;8.57;;;2.03;;
27163;SDS011;14685;50.618;7.024;2022-07-17T05:43:21;4.22;;;1.83;;
27163;SDS011;14685;50.618;7.024;2022-07-17T05:45:48;3.22;;;2.05;;
27163;SDS011;14685;50.618;7.024;2022-07-17T05:48:15;4.53;;;2.20;;
27163;SDS011;14685;50.618;7.024;2022-07-17T05:50:42;5.55;;;2.10;;
27163;SDS011;14685;50.618;7.024;2022-07-17T05:53:09;5.10;;;2.15;;
27163;SDS011;14685;50.618;7.024;2022-07-17T05:55:36;3.88;;;1.77;;
27163;SDS011;14685;50.618;7.024;2022-07-17T05:58:03;5.03;;;1.80;;
27163;SDS011;14685;50.618;7.024;2022-07-17T06:00:30;4.13;;;1.88;;
27163;SDS011;14685;50.618;7.024;2022-07-17T06:02:57;5.78;;;1.83;;
27163;SDS011;14685;50.618;7.024;2022-07-17T06:05:25;3.50;;;1.90;;
27163;SDS011;14685;50.618;7.024;2022-07-17T06:07:53;5.63;;;1.73;;
27163;SDS011;14685;50.618;7.024;2022-07-17T06:10:21;4.85;;;2.08;;
27163;SDS011;14685;50.618;7.024;2022-07-17T06:12:48;4.10;;;1.80;;
27163;SDS011;14685;50.618;7.024;2022-07-17T06:15:16;3.60;;;1.90;;
27163;SDS011;14685;50.618;7.024;2022-07-17T06:17:42;4.75;;;1.73;;
27163;SDS011;14685;50.618;7.024;2022-07-17T06:20:10;2.97;;;1.70;;
27163;SDS011;14685;50.618;7.024;2022-07-17T06:22:37;4.15;;;2.10;;
27163;SDS011;14685;50.618;7.024;2022-07-17T06:25:05;4.60;;;1.77;;
27163;SDS011;14685;50.618;7.024;2022-07-17T06:27:38;2.42;;;1.73;;
27163;SDS011;14685;50.618;7.024;2022-07-17T06:30:06;5.97;;;1.98;;
27163;SDS011;14685;50.618;7.024;2022-07-17T06:32:37;6.95;;;2.05;;
27163;SDS011;14685;50.618;7.024;2022-07-17T06:35:05;5.72;;;2.05;;
27163;SDS011;14685;50.618;7.024;2022-07-17T06:37:32;5.57;;;2.20;;
27163;SDS011;14685;50.618;7.024;2022-07-17T06:40:00;4.95;;;2.00;;
27163;SDS011;14685;50.618;7.024;2022-07-17T06:42:27;8.10;;;2.25;;
27163;SDS011;14685;50.618;7.024;2022-07-17T06:44:57;3.97;;;1.85;;
27163;SDS011;14685;50.618;7.024;2022-07-17T06:47:24;5.03;;;2.00;;
27163;SDS011;14685;50.618;7.024;2022-07-17T06:49:51;5.32;;;2.05;;
27163;SDS011;14685;50.618;7.024;2022-07-17T06:52:18;8.20;;;2.58;;
27163;SDS011;14685;50.618;7.024;2022-07-17T06:54:45;4.47;;;2.17;;
27163;SDS011;14685;50.618;7.024;2022-07-17T06:57:12;8.45;;;2.40;;
27163;SDS011;14685;50.618;7.024;2022-07-17T06:59:39;7.13;;;2.83;;
27163;SDS011;14685;50.618;7.024;2022-07-17T07:02:07;9.43;;;2.80;;
27163;SDS011;14685;50.618;7.024;2022-07-17T07:04:34;5.70;;;2.00;;
27163;SDS011;14685;50.618;7.024;2022-07-17T07:07:00;9.10;;;2.35;;
27163;SDS011;14685;50.618;7.024;2022-07-17T07:09:27;6.70;;;2.75;;
27163;SDS011;14685;50.618;7.024;2022-07-17T07:11:54;3.92;;;2.05;;
27163;SDS011;14685;50.618;7.024;2022-07-17T07:14:21;8.50;;;2.40;;
27163;SDS011;14685;50.618;7.024;2022-07-17T07:16:48;7.38;;;2.53;;
27163;SDS011;14685;50.618;7.024;2022-07-17T07:19:15;5.07;;;1.75;;
27163;SDS011;14685;50.618;7.024;2022-07-17T07:21:42;8.85;;;2.53;;
27163;SDS011;14685;50.618;7.024;2022-07-17T07:24:09;4.30;;;2.03;;
27163;SDS011;14685;50.618;7.024;2022-07-17T07:26:36;4.05;;;1.90;;
27163;SDS011;14685;50.618;7.024;2022-07-17T07:29:03;8.63;;;2.10;;
27163;SDS011;14685;50.618;7.024;2022-07-17T07:31:30;8.25;;;1.98;;
27163;SDS011;14685;50.618;7.024;2022-07-17T07:33:57;8.18;;;2.30;;
27163;SDS011;14685;50.618;7.024;2022-07-17T07:36:24;6.32;;;1.98;;
27163;SDS011;14685;50.618;7.024;2022-07-17T07:38:55;4.57;;;2.10;;
27163;SDS011;14685;50.618;7.024;2022-07-17T07:41:22;6.88;;;1.92;;
27163;SDS011;14685;50.618;7.024;2022-07-17T07:43:49;3.97;;;1.80;;
27163;SDS011;14685;50.618;7.024;2022-07-17T07:46:16;5.85;;;1.83;;
27163;SDS011;14685;50.618;7.024;2022-07-17T07:48:43;6.13;;;2.15;;
27163;SDS011;14685;50.618;7.024;2022-07-17T07:51:10;6.78;;;2.00;;
27163;SDS011;14685;50.618;7.024;2022-07-17T07:53:37;10.23;;;2.13;;
27163;SDS011;14685;50.618;7.024;2022-07-17T07:56:04;7.38;;;2.05;;
27163;SDS011;14685;50.618;7.024;2022-07-17T07:58:31;6.68;;;2.22;;
27163;SDS011;14685;50.618;7.024;2022-07-17T08:00:58;5.30;;;1.60;;
27163;SDS011;14685;50.618;7.024;2022-07-17T08:03:25;5.43;;;2.20;;
27163;SDS011;14685;50.618;7.024;2022-07-17T08:05:52;7.00;;;2.20;;
27163;SDS011;14685;50.618;7.024;2022-07-17T08:08:19;2.55;;;1.60;;
27163;SDS011;14685;50.618;7.024;2022-07-17T08:10:46;6.55;;;1.85;;
27163;SDS011;14685;50.618;7.024;2022-07-17T08:13:14;4.55;;;1.70;;
27163;SDS011;14685;50.618;7.024;2022-07-17T08:15:41;3.70;;;1.50;;
27163;SDS011;14685;50.618;7.024;2022-07-17T08:18:09;3.95;;;1.52;;
27163;SDS011;14685;50.618;7.024;2022-07-17T08:20:36;7.95;;;1.50;;
27163;SDS011;14685;50.618;7.024;2022-07-17T08:23:03;4.07;;;1.50;;
27163;SDS011;14685;50.618;7.024;2022-07-17T08:25:32;3.17;;;1.38;;
27163;SDS011;14685;50.618;7.024;2022-07-17T08:28:02;4.40;;;1.38;;
27163;SDS011;14685;50.618;7.024;2022-07-17T08:30:29;5.50;;;1.35;;
27163;SDS011;14685;50.618;7.024;2022-07-17T08:32:58;6.97;;;1.40;;
27163;SDS011;14685;50.618;7.024;2022-07-17T08:35:25;3.22;;;1.40;;
27163;SDS011;14685;50.618;7.024;2022-07-17T08:37:52;3.13;;;1.33;;
27163;SDS011;14685;50.618;7.024;2022-07-17T08:40:24;5.07;;;1.50;;
27163;SDS011;14685;50.618;7.024;2022-07-17T08:42:53;4.82;;;1.40;;
27163;SDS011;14685;50.618;7.024;2022-07-17T08:45:21;4.28;;;1.25;;
27163;SDS011;14685;50.618;7.024;2022-07-17T08:47:53;5.70;;;1.35;;
27163;SDS011;14685;50.618;7.024;2022-07-17T08:50:31;4.03;;;1.27;;
27163;SDS011;14685;50.618;7.024;2022-07-17T08:53:00;5.00;;;1.70;;
27163;SDS011;14685;50.618;7.024;2022-07-17T08:55:28;3.83;;;1.23;;
27163;SDS011;14685;50.618;7.024;2022-07-17T08:57:56;5.90;;;1.55;;
27163;SDS011;14685;50.618;7.024;2022-07-17T09:00:23;6.20;;;1.27;;
27163;SDS011;14685;50.618;7.024;2022-07-17T09:02:55;6.60;;;1.75;;
27163;SDS011;14685;50.618;7.024;2022-07-17T09:05:29;6.55;;;1.75;;
27163;SDS011;14685;50.618;7.024;2022-07-17T09:07:58;3.03;;;1.10;;
27163;SDS011;14685;50.618;7.024;2022-07-17T09:10:33;7.10;;;2.25;;
27163;SDS011;14685;50.618;7.024;2022-07-17T09:15:40;4.63;;;1.50;;
27163;SDS011;14685;50.618;7.024;2022-07-17T09:18:17;2.33;;;1.08;;
27163;SDS011;14685;50.618;7.024;2022-07-17T09:20:49;5.20;;;1.60;;
27163;SDS011;14685;50.618;7.024;2022-07-17T09:23:21;3.08;;;1.40;;
27163;SDS011;14685;50.618;7.024;2022-07-17T09:25:51;4.38;;;1.30;;
27163;SDS011;14685;50.618;7.024;2022-07-17T09:28:20;3.85;;;1.30;;
27163;SDS011;14685;50.618;7.024;2022-07-17T09:30:50;3.38;;;1.35;;
27163;SDS011;14685;50.618;7.024;2022-07-17T09:33:19;3.45;;;1.58;;
27163;SDS011;14685;50.618;7.024;2022-07-17T09:35:49;3.25;;;1.42;;
27163;SDS011;14685;50.618;7.024;2022-07-17T09:38:52;2.88;;;1.33;;
27163;SDS011;14685;50.618;7.024;2022-07-17T09:41:13;6.55;;;1.50;;
27163;SDS011;14685;50.618;7.024;2022-07-17T09:43:43;2.85;;;1.40;;
27163;SDS011;14685;50.618;7.024;2022-07-17T09:46:16;3.03;;;1.38;;
27163;SDS011;14685;50.618;7.024;2022-07-17T09:48:49;4.03;;;1.40;;
27163;SDS011;14685;50.618;7.024;2022-07-17T09:53:49;4.43;;;1.30;;
27163;SDS011;14685;50.618;7.024;2022-07-17T09:56:20;5.13;;;1.30;;
27163;SDS011;14685;50.618;7.024;2022-07-17T09:58:49;4.72;;;1.50;;
27163;SDS011;14685;50.618;7.024;2022-07-17T10:01:21;2.63;;;1.20;;
27163;SDS011;14685;50.618;7.024;2022-07-17T10:03:49;1.92;;;1.08;;
27163;SDS011;14685;50.618;7.024;2022-07-17T10:06:23;2.30;;;1.00;;
27163;SDS011;14685;50.618;7.024;2022-07-17T10:08:52;4.25;;;1.45;;
27163;SDS011;14685;50.618;7.024;2022-07-17T10:11:21;2.55;;;1.30;;
27163;SDS011;14685;50.618;7.024;2022-07-17T10:13:50;5.40;;;1.13;;
27163;SDS011;14685;50.618;7.024;2022-07-17T10:16:23;1.85;;;1.10;;
27163;SDS011;14685;50.618;7.024;2022-07-17T10:18:53;3.70;;;1.17;;
27163;SDS011;14685;50.618;7.024;2022-07-17T10:21:22;3.63;;;1.30;;
27163;SDS011;14685;50.618;7.024;2022-07-17T10:26:33;3.88;;;1.80;;
27163;SDS011;14685;50.618;7.024;2022-07-17T10:29:08;2.88;;;1.10;;
27163;SDS011;14685;50.618;7.024;2022-07-17T10:31:53;3.13;;;1.23;;
27163;SDS011;14685;50.618;7.024;2022-07-17T10:34:35;3.42;;;1.20;;
27163;SDS011;14685;50.618;7.024;2022-07-17T10:37:15;3.72;;;1.05;;
27163;SDS011;14685;50.618;7.024;2022-07-17T10:48:10;2.83;;;1.00;;
27163;SDS011;14685;50.618;7.024;2022-07-17T10:50:51;3.30;;;0.90;;
27163;SDS011;14685;50.618;7.024;2022-07-17T10:53:24;4.35;;;1.50;;
27163;SDS011;14685;50.618;7.024;2022-07-17T10:58:34;3.10;;;1.00;;
27163;SDS011;14685;50.618;7.024;2022-07-17T11:08:48;4.47;;;1.30;;
27163;SDS011;14685;50.618;7.024;2022-07-17T11:11:40;2.58;;;1.02;;
27163;SDS011;14685;50.618;7.024;2022-07-17T11:16:54;2.72;;;1.25;;
27163;SDS011;14685;50.618;7.024;2022-07-17T11:19:26;3.55;;;1.27;;
27163;SDS011;14685;50.618;7.024;2022-07-17T11:21:55;5.22;;;1.42;;
27163;SDS011;14685;50.618;7.024;2022-07-17T11:24:23;4.28;;;1.30;;
27163;SDS011;14685;50.618;7.024;2022-07-17T11:26:52;4.20;;;1.20;;
27163;SDS011;14685;50.618;7.024;2022-07-17T11:29:20;5.00;;;1.30;;
27163;SDS011;14685;50.618;7.024;2022-07-17T11:31:46;3.30;;;1.40;;
27163;SDS011;14685;50.618;7.024;2022-07-17T11:34:20;3.90;;;1.25;;
27163;SDS011;14685;50.618;7.024;2022-07-17T11:37:00;4.82;;;1.45;;
27163;SDS011;14685;50.618;7.024;2022-07-17T11:42:10;3.38;;;1.30;;
27163;SDS011;14685;50.618;7.024;2022-07-17T11:44:38;3.72;;;1.10;;
27163;SDS011;14685;50.618;7.024;2022-07-17T11:47:06;5.72;;;1.25;;
27163;SDS011;14685;50.618;7.024;2022-07-17T11:49:34;4.30;;;1.20;;
27163;SDS011;14685;50.618;7.024;2022-07-17T11:52:07;4.30;;;1.38;;
27163;SDS011;14685;50.618;7.024;2022-07-17T11:57:12;1.67;;;1.25;;
27163;SDS011;14685;50.618;7.024;2022-07-17T11:59:39;4.15;;;1.40;;
27163;SDS011;14685;50.618;7.024;2022-07-17T12:02:17;3.13;;;1.10;;
27163;SDS011;14685;50.618;7.024;2022-07-17T12:04:51;3.00;;;1.30;;
27163;SDS011;14685;50.618;7.024;2022-07-17T12:07:23;3.90;;;1.52;;
27163;SDS011;14685;50.618;7.024;2022-07-17T12:09:52;2.55;;;1.55;;
27163;SDS011;14685;50.618;7.024;2022-07-17T12:12:21;4.28;;;1.25;;
27163;SDS011;14685;50.618;7.024;2022-07-17T12:14:56;3.70;;;1.50;;
27163;SDS011;14685;50.618;7.024;2022-07-17T12:17:24;6.68;;;1.83;;
27163;SDS011;14685;50.618;7.024;2022-07-17T12:20:03;2.85;;;1.08;;
27163;SDS011;14685;50.618;7.024;2022-07-17T12:22:41;3.03;;;1.20;;
27163;SDS011;14685;50.618;7.024;2022-07-17T12:25:26;2.53;;;1.58;;
27163;SDS011;14685;50.618;7.024;2022-07-17T12:27:54;4.30;;;1.35;;
27163;SDS011;14685;50.618;7.024;2022-07-17T12:30:21;3.20;;;1.33;;
27163;SDS011;14685;50.618;7.024;2022-07-17T12:32:49;4.57;;;1.50;;
27163;SDS011;14685;50.618;7.024;2022-07-17T12:35:16;3.08;;;1.20;;
27163;SDS011;14685;50.618;7.024;2022-07-17T12:37:43;1.45;;;1.00;;
27163;SDS011;14685;50.618;7.024;2022-07-17T12:40:10;2.85;;;1.50;;
27163;SDS011;14685;50.618;7.024;2022-07-17T12:42:42;4.10;;;1.30;;
27163;SDS011;14685;50.618;7.024;2022-07-17T12:45:09;3.70;;;1.73;;
27163;SDS011;14685;50.618;7.024;2022-07-17T12:47:37;3.38;;;1.30;;
27163;SDS011;14685;50.618;7.024;2022-07-17T12:50:04;2.97;;;1.67;;
27163;SDS011;14685;50.618;7.024;2022-07-17T12:52:31;3.17;;;1.67;;
27163;SDS011;14685;50.618;7.024;2022-07-17T12:54:58;3.35;;;1.20;;
27163;SDS011;14685;50.618;7.024;2022-07-17T12:57:26;1.75;;;1.05;;
27163;SDS011;14685;50.618;7.024;2022-07-17T12:59:53;2.60;;;1.35;;
27163;SDS011;14685;50.618;7.024;2022-07-17T13:02:20;4.47;;;1.40;;
27163;SDS011;14685;50.618;7.024;2022-07-17T13:04:47;3.65;;;1.38;;
27163;SDS011;14685;50.618;7.024;2022-07-17T13:07:14;2.80;;;1.38;;
27163;SDS011;14685;50.618;7.024;2022-07-17T13:09:41;1.77;;;1.10;;
27163;SDS011;14685;50.618;7.024;2022-07-17T13:12:07;3.55;;;1.35;;
27163;SDS011;14685;50.618;7.024;2022-07-17T13:14:35;2.58;;;1.50;;
27163;SDS011;14685;50.618;7.024;2022-07-17T13:17:02;2.53;;;1.30;;
27163;SDS011;14685;50.618;7.024;2022-07-17T13:19:29;3.80;;;1.42;;
27163;SDS011;14685;50.618;7.024;2022-07-17T13:21:56;4.43;;;1.25;;
27163;SDS011;14685;50.618;7.024;2022-07-17T13:24:23;2.25;;;1.15;;
27163;SDS011;14685;50.618;7.024;2022-07-17T13:26:50;2.88;;;1.40;;
27163;SDS011;14685;50.618;7.024;2022-07-17T13:29:17;2.65;;;1.25;;
27163;SDS011;14685;50.618;7.024;2022-07-17T13:31:44;3.40;;;1.50;;
27163;SDS011;14685;50.618;7.024;2022-07-17T13:34:12;4.78;;;1.42;;
27163;SDS011;14685;50.618;7.024;2022-07-17T13:36:39;4.40;;;1.88;;
27163;SDS011;14685;50.618;7.024;2022-07-17T13:39:07;5.32;;;1.60;;
27163;SDS011;14685;50.618;7.024;2022-07-17T13:41:33;3.45;;;1.90;;
27163;SDS011;14685;50.618;7.024;2022-07-17T13:44:02;4.40;;;1.50;;
27163;SDS011;14685;50.618;7.024;2022-07-17T13:46:34;6.22;;;1.77;;
27163;SDS011;14685;50.618;7.024;2022-07-17T13:49:01;2.67;;;1.55;;
27163;SDS011;14685;50.618;7.024;2022-07-17T13:51:30;3.35;;;1.38;;
27163;SDS011;14685;50.618;7.024;2022-07-17T13:53:57;3.30;;;1.50;;
27163;SDS011;14685;50.618;7.024;2022-07-17T13:56:24;2.25;;;1.35;;
27163;SDS011;14685;50.618;7.024;2022-07-17T13:58:52;4.07;;;1.65;;
27163;SDS011;14685;50.618;7.024;2022-07-17T14:01:19;6.15;;;1.63;;
27163;SDS011;14685;50.618;7.024;2022-07-17T14:03:48;3.65;;;1.50;;
27163;SDS011;14685;50.618;7.024;2022-07-17T14:06:15;5.97;;;1.65;;
27163;SDS011;14685;50.618;7.024;2022-07-17T14:08:43;4.45;;;1.35;;
27163;SDS011;14685;50.618;7.024;2022-07-17T14:11:11;3.83;;;1.63;;
27163;SDS011;14685;50.618;7.024;2022-07-17T14:13:38;4.65;;;1.60;;
27163;SDS011;14685;50.618;7.024;2022-07-17T14:16:13;2.70;;;1.35;;
27163;SDS011;14685;50.618;7.024;2022-07-17T14:18:40;4.28;;;1.75;;
27163;SDS011;14685;50.618;7.024;2022-07-17T14:23:55;4.25;;;1.30;;
27163;SDS011;14685;50.618;7.024;2022-07-17T14:26:22;3.97;;;1.30;;
27163;SDS011;14685;50.618;7.024;2022-07-17T14:28:49;4.85;;;1.52;;
27163;SDS011;14685;50.618;7.024;2022-07-17T14:31:16;6.43;;;2.10;;
27163;SDS011;14685;50.618;7.024;2022-07-17T14:33:44;3.15;;;1.90;;
27163;SDS011;14685;50.618;7.024;2022-07-17T14:36:11;3.65;;;1.80;;
27163;SDS011;14685;50.618;7.024;2022-07-17T14:38:37;5.32;;;1.77;;
27163;SDS011;14685;50.618;7.024;2022-07-17T14:41:05;4.32;;;1.70;;
27163;SDS011;14685;50.618;7.024;2022-07-17T14:43:32;3.88;;;1.98;;
27163;SDS011;14685;50.618;7.024;2022-07-17T14:46:06;4.38;;;1.58;;
27163;SDS011;14685;50.618;7.024;2022-07-17T14:48:33;3.22;;;1.60;;
27163;SDS011;14685;50.618;7.024;2022-07-17T14:51:00;3.78;;;1.60;;
27163;SDS011;14685;50.618;7.024;2022-07-17T14:53:27;3.20;;;1.88;;
27163;SDS011;14685;50.618;7.024;2022-07-17T14:55:54;3.35;;;2.00;;
27163;SDS011;14685;50.618;7.024;2022-07-17T14:58:21;4.25;;;1.98;;
27163;SDS011;14685;50.618;7.024;2022-07-17T15:00:48;2.92;;;1.73;;
27163;SDS011;14685;50.618;7.024;2022-07-17T15:03:15;3.03;;;1.73;;
27163;SDS011;14685;50.618;7.024;2022-07-17T15:05:42;4.18;;;1.92;;
27163;SDS011;14685;50.618;7.024;2022-07-17T15:08:09;4.60;;;1.60;;
27163;SDS011;14685;50.618;7.024;2022-07-17T15:10:36;4.40;;;1.70;;
27163;SDS011;14685;50.618;7.024;2022-07-17T15:13:03;3.17;;;1.60;;
27163;SDS011;14685;50.618;7.024;2022-07-17T15:15:30;6.65;;;1.70;;
27163;SDS011;14685;50.618;7.024;2022-07-17T15:17:57;3.33;;;1.80;;
27163;SDS011;14685;50.618;7.024;2022-07-17T15:20:24;3.80;;;1.70;;
27163;SDS011;14685;50.618;7.024;2022-07-17T15:22:51;3.72;;;1.70;;
27163;SDS011;14685;50.618;7.024;2022-07-17T15:25:18;4.95;;;1.83;;
27163;SDS011;14685;50.618;7.024;2022-07-17T15:27:45;4.38;;;1.70;;
27163;SDS011;14685;50.618;7.024;2022-07-17T15:30:12;2.50;;;1.67;;
27163;SDS011;14685;50.618;7.024;2022-07-17T15:32:40;4.72;;;2.05;;